sensor_id;sensor_type;location;lat;lon;timestamp;P1;durP1;ratioP1;P2;durP2;ratioP2
23573;SDS011;11965;53.640;10.050;2022-10-17T00:01:40;140918.42;;;67981.13;;
23573;SDS011;11965;53.640;10.050;2022-10-17T00:04:06;140969.05;;;67998.71;;
23573;SDS011;11965;53.640;10.050;2022-10-17T00:06:32;140909.14;;;67973.73;;
23573;SDS011;11965;53.640;10.050;2022-10-17T00:08:57;140999.02;;;68012.48;;
23573;SDS011;11965;53.640;10.050;2022-10-17T00:11:23;140842.80;;;67949.09;;
23573;SDS011;11965;53.640;10.050;2022-10-17T00:13:50;140980.97;;;68006.66;;
23573;SDS011;11965;53.640;10.050;2022-10-17T00:16:28;140612.59;;;67863.95;;
23573;SDS011;11965;53.640;10.050;2022-10-17T00:18:57;140989.64;;;68010.93;;
23573;SDS011;11965;53.640;10.050;2022-10-17T00:21:23;140999.75;;;68018.27;;
23573;SDS011;11965;53.640;10.050;2022-10-17T00:23:50;140671.17;;;67886.48;;
23573;SDS011;11965;53.640;10.050;2022-10-17T00:26:18;140890.83;;;67970.03;;
23573;SDS011;11965;53.640;10.050;2022-10-17T00:28:48;140949.08;;;67992.27;;
23573;SDS011;11965;53.640;10.050;2022-10-17T00:31:17;140774.36;;;67917.07;;
23573;SDS011;11965;53.640;10.050;2022-10-17T00:33:44;140836.45;;;67944.32;;
23573;SDS011;11965;53.640;10.050;2022-10-17T00:36:14;140773.20;;;67918.66;;
23573;SDS011;11965;53.640;10.050;2022-10-17T00:38:42;140762.25;;;67913.08;;
23573;SDS011;11965;53.640;10.050;2022-10-17T00:41:11;140880.42;;;67960.33;;
23573;SDS011;11965;53.640;10.050;2022-10-17T00:46:29;140401.78;;;67771.45;;
23573;SDS011;11965;53.640;10.050;2022-10-17T00:49:01;140391.59;;;67770.66;;
23573;SDS011;11965;53.640;10.050;2022-10-17T00:51:36;140743.95;;;67905.37;;
23573;SDS011;11965;53.640;10.050;2022-10-17T00:54:08;140904.31;;;67968.92;;
23573;SDS011;11965;53.640;10.050;2022-10-17T00:56:35;140887.36;;;67955.05;;
23573;SDS011;11965;53.640;10.050;2022-10-17T00:59:03;140894.78;;;67959.21;;
23573;SDS011;11965;53.640;10.050;2022-10-17T01:01:28;140867.42;;;67949.31;;
23573;SDS011;11965;53.640;10.050;2022-10-17T01:03:56;140789.53;;;67921.34;;
23573;SDS011;11965;53.640;10.050;2022-10-17T01:06:22;140689.39;;;67880.92;;
23573;SDS011;11965;53.640;10.050;2022-10-17T01:08:47;140289.33;;;67722.08;;
23573;SDS011;11965;53.640;10.050;2022-10-17T01:13:57;140733.78;;;67898.05;;
23573;SDS011;11965;53.640;10.050;2022-10-17T01:19:30;140336.48;;;67733.23;;
23573;SDS011;11965;53.640;10.050;2022-10-17T01:24:54;140477.42;;;67794.42;;
23573;SDS011;11965;53.640;10.050;2022-10-17T01:27:51;140497.92;;;67806.05;;
23573;SDS011;11965;53.640;10.050;2022-10-17T01:33:26;140676.86;;;67877.63;;
23573;SDS011;11965;53.640;10.050;2022-10-17T01:36:14;140685.75;;;67872.63;;
23573;SDS011;11965;53.640;10.050;2022-10-17T01:42:15;140790.84;;;67923.92;;
23573;SDS011;11965;53.640;10.050;2022-10-17T01:44:48;140744.59;;;67903.47;;
23573;SDS011;11965;53.640;10.050;2022-10-17T01:47:21;140646.22;;;67868.13;;
23573;SDS011;11965;53.640;10.050;2022-10-17T01:49:53;140576.66;;;67830.41;;
23573;SDS011;11965;53.640;10.050;2022-10-17T01:52:40;140536.52;;;67814.63;;
23573;SDS011;11965;53.640;10.050;2022-10-17T01:55:24;140464.13;;;67790.83;;
23573;SDS011;11965;53.640;10.050;2022-10-17T01:57:59;140406.84;;;67764.71;;
23573;SDS011;11965;53.640;10.050;2022-10-17T02:00:31;140309.13;;;67727.55;;
23573;SDS011;11965;53.640;10.050;2022-10-17T02:03:01;140471.98;;;67792.51;;
23573;SDS011;11965;53.640;10.050;2022-10-17T02:05:33;139941.52;;;67578.57;;
23573;SDS011;11965;53.640;10.050;2022-10-17T02:08:03;140259.98;;;67711.05;;
23573;SDS011;11965;53.640;10.050;2022-10-17T02:13:22;140563.16;;;67823.34;;
23573;SDS011;11965;53.640;10.050;2022-10-17T02:16:01;140270.05;;;67705.00;;
23573;SDS011;11965;53.640;10.050;2022-10-17T02:18:45;140306.92;;;67723.43;;
23573;SDS011;11965;53.640;10.050;2022-10-17T02:21:30;140242.78;;;67697.36;;
23573;SDS011;11965;53.640;10.050;2022-10-17T02:27:05;140194.19;;;67672.16;;
23573;SDS011;11965;53.640;10.050;2022-10-17T02:29:58;140099.55;;;67633.32;;
23573;SDS011;11965;53.640;10.050;2022-10-17T02:35:12;140327.33;;;67729.10;;
23573;SDS011;11965;53.640;10.050;2022-10-17T02:37:41;140193.48;;;67672.35;;
23573;SDS011;11965;53.640;10.050;2022-10-17T02:40:11;139775.20;;;67505.84;;
23573;SDS011;11965;53.640;10.050;2022-10-17T02:42:42;139852.27;;;67533.40;;
23573;SDS011;11965;53.640;10.050;2022-10-17T02:45:12;139949.02;;;67573.88;;
23573;SDS011;11965;53.640;10.050;2022-10-17T02:47:47;139947.94;;;67572.70;;
23573;SDS011;11965;53.640;10.050;2022-10-17T02:50:21;139806.28;;;67515.95;;
23573;SDS011;11965;53.640;10.050;2022-10-17T02:52:56;139860.31;;;67537.26;;
23573;SDS011;11965;53.640;10.050;2022-10-17T02:55:30;139899.22;;;67551.77;;
23573;SDS011;11965;53.640;10.050;2022-10-17T02:58:07;139874.50;;;67542.36;;
23573;SDS011;11965;53.640;10.050;2022-10-17T03:00:43;139996.28;;;67588.55;;
23573;SDS011;11965;53.640;10.050;2022-10-17T03:03:20;139968.02;;;67577.54;;
23573;SDS011;11965;53.640;10.050;2022-10-17T03:05:49;139708.77;;;67482.80;;
23573;SDS011;11965;53.640;10.050;2022-10-17T03:08:15;139586.30;;;67432.47;;
23573;SDS011;11965;53.640;10.050;2022-10-17T03:10:40;139786.19;;;67508.79;;
23573;SDS011;11965;53.640;10.050;2022-10-17T03:13:06;139899.17;;;67551.49;;
23573;SDS011;11965;53.640;10.050;2022-10-17T03:15:35;139817.66;;;67519.39;;
23573;SDS011;11965;53.640;10.050;2022-10-17T03:18:01;139666.14;;;67457.47;;
23573;SDS011;11965;53.640;10.050;2022-10-17T03:20:27;139740.58;;;67485.57;;
23573;SDS011;11965;53.640;10.050;2022-10-17T03:22:53;139672.11;;;67455.64;;
23573;SDS011;11965;53.640;10.050;2022-10-17T03:25:18;139655.16;;;67446.59;;
23573;SDS011;11965;53.640;10.050;2022-10-17T03:27:46;139578.53;;;67415.40;;
23573;SDS011;11965;53.640;10.050;2022-10-17T03:30:12;139716.47;;;67474.14;;
23573;SDS011;11965;53.640;10.050;2022-10-17T03:32:38;139722.06;;;67479.52;;
23573;SDS011;11965;53.640;10.050;2022-10-17T03:35:04;139786.98;;;67507.20;;
23573;SDS011;11965;53.640;10.050;2022-10-17T03:37:30;139682.98;;;67462.14;;
23573;SDS011;11965;53.640;10.050;2022-10-17T03:39:55;139794.11;;;67504.20;;
23573;SDS011;11965;53.640;10.050;2022-10-17T03:42:21;139900.70;;;67545.59;;
23573;SDS011;11965;53.640;10.050;2022-10-17T03:44:47;139566.98;;;67411.41;;
23573;SDS011;11965;53.640;10.050;2022-10-17T03:47:13;139590.80;;;67423.98;;
23573;SDS011;11965;53.640;10.050;2022-10-17T03:49:39;140036.05;;;67600.12;;
23573;SDS011;11965;53.640;10.050;2022-10-17T03:52:04;139938.58;;;67566.90;;
23573;SDS011;11965;53.640;10.050;2022-10-17T03:54:30;139978.27;;;67581.19;;
23573;SDS011;11965;53.640;10.050;2022-10-17T03:56:55;140009.89;;;67594.67;;
23573;SDS011;11965;53.640;10.050;2022-10-17T03:59:21;139930.17;;;67564.92;;
23573;SDS011;11965;53.640;10.050;2022-10-17T04:01:57;140062.11;;;67618.05;;
23573;SDS011;11965;53.640;10.050;2022-10-17T04:04:22;140041.14;;;67613.75;;
23573;SDS011;11965;53.640;10.050;2022-10-17T04:06:48;139913.67;;;67556.73;;
23573;SDS011;11965;53.640;10.050;2022-10-17T04:09:14;140096.89;;;67635.95;;
23573;SDS011;11965;53.640;10.050;2022-10-17T04:12:00;139677.69;;;67460.47;;
23573;SDS011;11965;53.640;10.050;2022-10-17T04:14:26;139864.36;;;67535.80;;
23573;SDS011;11965;53.640;10.050;2022-10-17T04:16:52;140102.42;;;67630.91;;
23573;SDS011;11965;53.640;10.050;2022-10-17T04:19:19;140004.97;;;67597.38;;
23573;SDS011;11965;53.640;10.050;2022-10-17T04:21:46;140114.16;;;67641.48;;
23573;SDS011;11965;53.640;10.050;2022-10-17T04:24:13;140010.02;;;67600.22;;
23573;SDS011;11965;53.640;10.050;2022-10-17T04:26:57;139953.88;;;67581.20;;
23573;SDS011;11965;53.640;10.050;2022-10-17T04:29:26;140046.17;;;67610.70;;
23573;SDS011;11965;53.640;10.050;2022-10-17T04:31:59;140241.64;;;67690.84;;
23573;SDS011;11965;53.640;10.050;2022-10-17T04:34:48;140071.61;;;67626.54;;
23573;SDS011;11965;53.640;10.050;2022-10-17T04:37:14;139770.59;;;67508.17;;
23573;SDS011;11965;53.640;10.050;2022-10-17T04:39:42;140063.25;;;67623.80;;
23573;SDS011;11965;53.640;10.050;2022-10-17T04:42:08;140107.81;;;67639.88;;
23573;SDS011;11965;53.640;10.050;2022-10-17T04:44:34;140295.81;;;67715.70;;
23573;SDS011;11965;53.640;10.050;2022-10-17T04:47:00;140207.42;;;67680.87;;
23573;SDS011;11965;53.640;10.050;2022-10-17T04:49:26;140210.52;;;67686.84;;
23573;SDS011;11965;53.640;10.050;2022-10-17T04:51:56;140279.03;;;67707.08;;
23573;SDS011;11965;53.640;10.050;2022-10-17T04:54:25;140318.72;;;67725.00;;
23573;SDS011;11965;53.640;10.050;2022-10-17T04:56:57;140124.14;;;67643.48;;
23573;SDS011;11965;53.640;10.050;2022-10-17T04:59:23;140085.75;;;67629.80;;
23573;SDS011;11965;53.640;10.050;2022-10-17T05:02:04;140163.39;;;67660.51;;
23573;SDS011;11965;53.640;10.050;2022-10-17T05:04:31;140175.36;;;67663.23;;
23573;SDS011;11965;53.640;10.050;2022-10-17T05:06:57;140062.55;;;67623.67;;
23573;SDS011;11965;53.640;10.050;2022-10-17T05:09:43;139839.16;;;67529.60;;
23573;SDS011;11965;53.640;10.050;2022-10-17T05:12:09;140126.16;;;67640.96;;
23573;SDS011;11965;53.640;10.050;2022-10-17T05:14:34;140175.13;;;67666.70;;
23573;SDS011;11965;53.640;10.050;2022-10-17T05:17:00;140214.48;;;67683.95;;
23573;SDS011;11965;53.640;10.050;2022-10-17T05:19:27;140217.08;;;67683.70;;
23573;SDS011;11965;53.640;10.050;2022-10-17T05:21:53;140116.20;;;67640.62;;
23573;SDS011;11965;53.640;10.050;2022-10-17T05:24:18;140203.95;;;67680.16;;
23573;SDS011;11965;53.640;10.050;2022-10-17T05:26:44;140359.48;;;67743.21;;
23573;SDS011;11965;53.640;10.050;2022-10-17T05:29:10;140500.77;;;67801.20;;
23573;SDS011;11965;53.640;10.050;2022-10-17T05:31:41;140507.95;;;67806.13;;
23573;SDS011;11965;53.640;10.050;2022-10-17T05:34:07;140757.45;;;67906.13;;
23573;SDS011;11965;53.640;10.050;2022-10-17T05:36:33;140427.34;;;67780.22;;
23573;SDS011;11965;53.640;10.050;2022-10-17T05:39:00;140818.42;;;67937.10;;
23573;SDS011;11965;53.640;10.050;2022-10-17T05:41:27;140413.08;;;67772.34;;
23573;SDS011;11965;53.640;10.050;2022-10-17T05:43:52;140339.61;;;67744.88;;
23573;SDS011;11965;53.640;10.050;2022-10-17T05:46:27;140312.58;;;67730.63;;
23573;SDS011;11965;53.640;10.050;2022-10-17T05:48:53;140412.48;;;67766.89;;
23573;SDS011;11965;53.640;10.050;2022-10-17T05:51:19;140443.41;;;67780.74;;
23573;SDS011;11965;53.640;10.050;2022-10-17T05:53:45;140364.53;;;67746.95;;
23573;SDS011;11965;53.640;10.050;2022-10-17T05:56:16;140422.09;;;67766.55;;
23573;SDS011;11965;53.640;10.050;2022-10-17T05:58:43;140239.56;;;67699.25;;
23573;SDS011;11965;53.640;10.050;2022-10-17T06:01:18;140363.67;;;67746.12;;
23573;SDS011;11965;53.640;10.050;2022-10-17T06:03:43;140492.41;;;67799.08;;
23573;SDS011;11965;53.640;10.050;2022-10-17T06:06:10;140432.83;;;67774.34;;
23573;SDS011;11965;53.640;10.050;2022-10-17T06:08:41;140538.94;;;67814.86;;
23573;SDS011;11965;53.640;10.050;2022-10-17T06:11:11;140515.70;;;67810.67;;
23573;SDS011;11965;53.640;10.050;2022-10-17T06:13:37;140428.89;;;67772.60;;
23573;SDS011;11965;53.640;10.050;2022-10-17T06:16:09;140379.45;;;67751.09;;
23573;SDS011;11965;53.640;10.050;2022-10-17T06:18:35;140363.48;;;67747.84;;
23573;SDS011;11965;53.640;10.050;2022-10-17T06:21:04;140015.67;;;67602.55;;
23573;SDS011;11965;53.640;10.050;2022-10-17T06:23:33;140285.09;;;67711.90;;
23573;SDS011;11965;53.640;10.050;2022-10-17T06:26:07;140370.95;;;67742.91;;
23573;SDS011;11965;53.640;10.050;2022-10-17T06:28:33;140538.45;;;67815.77;;
23573;SDS011;11965;53.640;10.050;2022-10-17T06:31:04;140648.11;;;67861.52;;
23573;SDS011;11965;53.640;10.050;2022-10-17T06:33:31;140610.67;;;67853.09;;
23573;SDS011;11965;53.640;10.050;2022-10-17T06:35:56;140515.66;;;67814.22;;
23573;SDS011;11965;53.640;10.050;2022-10-17T06:38:23;140445.48;;;67778.41;;
23573;SDS011;11965;53.640;10.050;2022-10-17T06:40:51;140173.33;;;67669.59;;
23573;SDS011;11965;53.640;10.050;2022-10-17T06:43:18;140257.28;;;67698.34;;
23573;SDS011;11965;53.640;10.050;2022-10-17T06:45:59;139990.84;;;67592.42;;
23573;SDS011;11965;53.640;10.050;2022-10-17T06:48:36;140054.27;;;67619.20;;
23573;SDS011;11965;53.640;10.050;2022-10-17T06:51:20;140223.38;;;67689.98;;
23573;SDS011;11965;53.640;10.050;2022-10-17T06:53:49;140276.92;;;67709.23;;
23573;SDS011;11965;53.640;10.050;2022-10-17T06:56:37;140240.63;;;67693.11;;
23573;SDS011;11965;53.640;10.050;2022-10-17T06:59:21;140181.28;;;67668.59;;
23573;SDS011;11965;53.640;10.050;2022-10-17T07:01:57;139938.73;;;67568.30;;
23573;SDS011;11965;53.640;10.050;2022-10-17T07:04:23;140149.02;;;67647.01;;
23573;SDS011;11965;53.640;10.050;2022-10-17T07:06:49;139605.81;;;67431.80;;
23573;SDS011;11965;53.640;10.050;2022-10-17T07:09:18;139783.53;;;67501.52;;
23573;SDS011;11965;53.640;10.050;2022-10-17T07:11:44;139878.52;;;67543.77;;
23573;SDS011;11965;53.640;10.050;2022-10-17T07:14:10;139935.17;;;67567.29;;
23573;SDS011;11965;53.640;10.050;2022-10-17T07:16:36;139987.45;;;67584.41;;
23573;SDS011;11965;53.640;10.050;2022-10-17T07:19:08;139645.88;;;67444.26;;
23573;SDS011;11965;53.640;10.050;2022-10-17T07:21:36;139456.78;;;67366.18;;
23573;SDS011;11965;53.640;10.050;2022-10-17T07:24:02;139426.66;;;67355.21;;
23573;SDS011;11965;53.640;10.050;2022-10-17T07:26:28;139334.75;;;67314.70;;
23573;SDS011;11965;53.640;10.050;2022-10-17T07:28:54;139111.45;;;67225.41;;
23573;SDS011;11965;53.640;10.050;2022-10-17T07:31:35;138776.34;;;67087.95;;
23573;SDS011;11965;53.640;10.050;2022-10-17T07:34:01;138494.16;;;66969.42;;
23573;SDS011;11965;53.640;10.050;2022-10-17T07:36:27;138403.38;;;66932.71;;
23573;SDS011;11965;53.640;10.050;2022-10-17T07:38:54;138586.20;;;67010.70;;
23573;SDS011;11965;53.640;10.050;2022-10-17T07:41:20;138129.05;;;66821.80;;
23573;SDS011;11965;53.640;10.050;2022-10-17T07:43:45;137816.42;;;66696.22;;
23573;SDS011;11965;53.640;10.050;2022-10-17T07:46:13;137926.84;;;66738.13;;
23573;SDS011;11965;53.640;10.050;2022-10-17T07:48:39;137871.45;;;66711.54;;
23573;SDS011;11965;53.640;10.050;2022-10-17T07:51:06;137740.34;;;66658.52;;
23573;SDS011;11965;53.640;10.050;2022-10-17T07:53:36;137461.61;;;66544.53;;
23573;SDS011;11965;53.640;10.050;2022-10-17T07:56:04;137375.33;;;66506.87;;
23573;SDS011;11965;53.640;10.050;2022-10-17T07:58:30;137354.92;;;66499.11;;
23573;SDS011;11965;53.640;10.050;2022-10-17T08:01:00;137138.70;;;66416.45;;
23573;SDS011;11965;53.640;10.050;2022-10-17T08:03:27;137208.42;;;66442.42;;
23573;SDS011;11965;53.640;10.050;2022-10-17T08:05:55;136760.53;;;66255.82;;
23573;SDS011;11965;53.640;10.050;2022-10-17T08:08:25;136576.58;;;66178.63;;
23573;SDS011;11965;53.640;10.050;2022-10-17T08:10:51;136798.33;;;66263.63;;
23573;SDS011;11965;53.640;10.050;2022-10-17T08:13:19;136755.63;;;66251.50;;
23573;SDS011;11965;53.640;10.050;2022-10-17T08:15:46;136325.83;;;66076.38;;
23573;SDS011;11965;53.640;10.050;2022-10-17T08:18:12;136199.67;;;66029.48;;
23573;SDS011;11965;53.640;10.050;2022-10-17T08:20:39;135592.86;;;65781.02;;
23573;SDS011;11965;53.640;10.050;2022-10-17T08:23:05;135646.08;;;65798.35;;
23573;SDS011;11965;53.640;10.050;2022-10-17T08:25:31;135645.55;;;65796.15;;
23573;SDS011;11965;53.640;10.050;2022-10-17T08:27:57;135529.17;;;65749.45;;
23573;SDS011;11965;53.640;10.050;2022-10-17T08:30:23;135129.08;;;65591.71;;
23573;SDS011;11965;53.640;10.050;2022-10-17T08:32:49;135040.14;;;65547.85;;
23573;SDS011;11965;53.640;10.050;2022-10-17T08:35:15;134847.42;;;65467.57;;
23573;SDS011;11965;53.640;10.050;2022-10-17T08:37:40;134765.36;;;65437.38;;
23573;SDS011;11965;53.640;10.050;2022-10-17T08:40:06;134778.03;;;65444.99;;
23573;SDS011;11965;53.640;10.050;2022-10-17T08:45:19;135164.95;;;65596.23;;
23573;SDS011;11965;53.640;10.050;2022-10-17T08:47:51;134861.41;;;65469.58;;
23573;SDS011;11965;53.640;10.050;2022-10-17T08:55:48;134133.92;;;65177.02;;
23573;SDS011;11965;53.640;10.050;2022-10-17T09:04:02;134790.55;;;65446.21;;
23573;SDS011;11965;53.640;10.050;2022-10-17T09:20:20;133933.86;;;65097.01;;
23573;SDS011;11965;53.640;10.050;2022-10-17T09:22:52;133393.09;;;64877.26;;
23573;SDS011;11965;53.640;10.050;2022-10-17T09:25:28;133157.44;;;64781.51;;
23573;SDS011;11965;53.640;10.050;2022-10-17T09:28:13;133522.05;;;64926.06;;
23573;SDS011;11965;53.640;10.050;2022-10-17T09:31:00;133183.64;;;64788.73;;
23573;SDS011;11965;53.640;10.050;2022-10-17T09:33:40;133282.03;;;64829.66;;
23573;SDS011;11965;53.640;10.050;2022-10-17T09:38:41;133144.66;;;64777.38;;
23573;SDS011;11965;53.640;10.050;2022-10-17T09:41:16;133235.42;;;64814.41;;
23573;SDS011;11965;53.640;10.050;2022-10-17T09:43:44;132790.02;;;64630.84;;
23573;SDS011;11965;53.640;10.050;2022-10-17T09:46:22;132960.48;;;64701.91;;
23573;SDS011;11965;53.640;10.050;2022-10-17T09:48:56;132928.77;;;64690.08;;
23573;SDS011;11965;53.640;10.050;2022-10-17T09:51:29;132740.59;;;64610.53;;
23573;SDS011;11965;53.640;10.050;2022-10-17T09:53:59;132977.92;;;64703.40;;
23573;SDS011;11965;53.640;10.050;2022-10-17T09:56:29;132654.02;;;64574.29;;
23573;SDS011;11965;53.640;10.050;2022-10-17T09:58:55;132513.91;;;64516.54;;
23573;SDS011;11965;53.640;10.050;2022-10-17T10:06:39;132041.02;;;64327.02;;
23573;SDS011;11965;53.640;10.050;2022-10-17T10:09:16;131634.27;;;64155.55;;
23573;SDS011;11965;53.640;10.050;2022-10-17T10:11:51;131837.11;;;64235.52;;
23573;SDS011;11965;53.640;10.050;2022-10-17T10:14:31;131652.22;;;64160.50;;
23573;SDS011;11965;53.640;10.050;2022-10-17T10:17:02;131566.83;;;64125.52;;
23573;SDS011;11965;53.640;10.050;2022-10-17T10:19:37;131531.34;;;64111.27;;
23573;SDS011;11965;53.640;10.050;2022-10-17T10:22:24;131231.05;;;63993.80;;
23573;SDS011;11965;53.640;10.050;2022-10-17T10:27:40;131027.98;;;63914.19;;
23573;SDS011;11965;53.640;10.050;2022-10-17T10:30:19;131079.91;;;63935.61;;
23573;SDS011;11965;53.640;10.050;2022-10-17T10:32:50;130740.57;;;63794.80;;
23573;SDS011;11965;53.640;10.050;2022-10-17T10:35:35;130599.59;;;63744.31;;
23573;SDS011;11965;53.640;10.050;2022-10-17T10:38:07;130535.04;;;63716.97;;
23573;SDS011;11965;53.640;10.050;2022-10-17T10:41:02;130441.76;;;63678.24;;
23573;SDS011;11965;53.640;10.050;2022-10-17T10:43:35;130498.10;;;63701.81;;
23573;SDS011;11965;53.640;10.050;2022-10-17T10:48:51;129901.48;;;63458.23;;
23573;SDS011;11965;53.640;10.050;2022-10-17T10:51:40;129703.48;;;63378.76;;
23573;SDS011;11965;53.640;10.050;2022-10-17T10:54:25;129995.96;;;63494.02;;
23573;SDS011;11965;53.640;10.050;2022-10-17T10:56:59;129652.35;;;63357.13;;
23573;SDS011;11965;53.640;10.050;2022-10-17T10:59:29;129274.29;;;63206.97;;
23573;SDS011;11965;53.640;10.050;2022-10-17T11:02:10;129531.63;;;63306.15;;
23573;SDS011;11965;53.640;10.050;2022-10-17T11:04:54;129450.87;;;63272.63;;
23573;SDS011;11965;53.640;10.050;2022-10-17T11:07:30;129811.36;;;63418.77;;
23573;SDS011;11965;53.640;10.050;2022-10-17T11:10:09;129396.20;;;63257.79;;
23573;SDS011;11965;53.640;10.050;2022-10-17T11:12:54;129216.34;;;63181.95;;
23573;SDS011;11965;53.640;10.050;2022-10-17T11:15:52;129264.52;;;63207.02;;
23573;SDS011;11965;53.640;10.050;2022-10-17T11:21:15;129363.96;;;63246.68;;
23573;SDS011;11965;53.640;10.050;2022-10-17T11:26:38;129851.61;;;63434.48;;
23573;SDS011;11965;53.640;10.050;2022-10-17T11:29:11;129708.20;;;63378.70;;
23573;SDS011;11965;53.640;10.050;2022-10-17T11:31:40;129664.77;;;63358.99;;
23573;SDS011;11965;53.640;10.050;2022-10-17T11:34:17;129729.20;;;63383.79;;
23573;SDS011;11965;53.640;10.050;2022-10-17T11:36:56;129624.89;;;63344.07;;
23573;SDS011;11965;53.640;10.050;2022-10-17T11:42:14;129214.71;;;63183.14;;
23573;SDS011;11965;53.640;10.050;2022-10-17T11:44:45;129102.32;;;63139.07;;
23573;SDS011;11965;53.640;10.050;2022-10-17T11:47:26;128973.66;;;63086.51;;
23573;SDS011;11965;53.640;10.050;2022-10-17T11:50:18;129180.67;;;63169.51;;
23573;SDS011;11965;53.640;10.050;2022-10-17T11:55:40;129160.50;;;63161.97;;
23573;SDS011;11965;53.640;10.050;2022-10-17T12:06:36;129045.13;;;63112.95;;
23573;SDS011;11965;53.640;10.050;2022-10-17T12:09:19;129162.75;;;63153.82;;
23573;SDS011;11965;53.640;10.050;2022-10-17T12:12:07;129503.50;;;63286.92;;
23573;SDS011;11965;53.640;10.050;2022-10-17T12:14:40;129611.20;;;63330.35;;
23573;SDS011;11965;53.640;10.050;2022-10-17T12:22:54;130863.83;;;63844.73;;
23573;SDS011;11965;53.640;10.050;2022-10-17T12:25:33;131044.68;;;63914.84;;
23573;SDS011;11965;53.640;10.050;2022-10-17T12:28:17;131658.53;;;64161.07;;
23573;SDS011;11965;53.640;10.050;2022-10-17T12:36:35;132326.36;;;64431.14;;
23573;SDS011;11965;53.640;10.050;2022-10-17T12:49:41;132818.05;;;64634.03;;
23573;SDS011;11965;53.640;10.050;2022-10-17T12:54:45;132728.59;;;64606.07;;
23573;SDS011;11965;53.640;10.050;2022-10-17T13:02:52;132644.41;;;64568.79;;
23573;SDS011;11965;53.640;10.050;2022-10-17T13:05:27;132568.45;;;64538.88;;
23573;SDS011;11965;53.640;10.050;2022-10-17T13:07:58;132624.50;;;64561.63;;
23573;SDS011;11965;53.640;10.050;2022-10-17T13:10:28;133166.17;;;64781.34;;
23573;SDS011;11965;53.640;10.050;2022-10-17T13:13:05;133307.66;;;64833.01;;
23573;SDS011;11965;53.640;10.050;2022-10-17T13:15:48;133124.11;;;64760.21;;
23573;SDS011;11965;53.640;10.050;2022-10-17T13:18:17;132982.06;;;64703.88;;
23573;SDS011;11965;53.640;10.050;2022-10-17T13:20:54;133106.80;;;64755.35;;
23573;SDS011;11965;53.640;10.050;2022-10-17T13:23:33;132895.72;;;64674.11;;
23573;SDS011;11965;53.640;10.050;2022-10-17T13:26:11;133013.53;;;64714.88;;
23573;SDS011;11965;53.640;10.050;2022-10-17T13:28:44;133337.23;;;64846.53;;
23573;SDS011;11965;53.640;10.050;2022-10-17T13:31:32;133085.02;;;64745.38;;
23573;SDS011;11965;53.640;10.050;2022-10-17T13:34:00;133869.39;;;65057.22;;
23573;SDS011;11965;53.640;10.050;2022-10-17T13:36:29;133630.08;;;64965.38;;
23573;SDS011;11965;53.640;10.050;2022-10-17T13:38:57;133690.17;;;64987.39;;
23573;SDS011;11965;53.640;10.050;2022-10-17T13:41:29;133398.03;;;64873.59;;
23573;SDS011;11965;53.640;10.050;2022-10-17T13:43:59;133618.08;;;64961.66;;
23573;SDS011;11965;53.640;10.050;2022-10-17T13:46:31;133799.64;;;65030.06;;
23573;SDS011;11965;53.640;10.050;2022-10-17T13:49:08;133576.36;;;64948.15;;
23573;SDS011;11965;53.640;10.050;2022-10-17T13:51:47;133816.16;;;65038.26;;
23573;SDS011;11965;53.640;10.050;2022-10-17T13:54:16;133783.84;;;65026.52;;
23573;SDS011;11965;53.640;10.050;2022-10-17T13:57:05;133218.42;;;64803.07;;
23573;SDS011;11965;53.640;10.050;2022-10-17T13:59:46;133626.66;;;64966.72;;
23573;SDS011;11965;53.640;10.050;2022-10-17T14:02:25;133775.16;;;65028.61;;
23573;SDS011;11965;53.640;10.050;2022-10-17T14:05:01;133996.78;;;65112.39;;
23573;SDS011;11965;53.640;10.050;2022-10-17T14:12:57;133885.92;;;65065.48;;
23573;SDS011;11965;53.640;10.050;2022-10-17T14:15:25;133523.97;;;64923.50;;
23573;SDS011;11965;53.640;10.050;2022-10-17T14:17:56;133686.91;;;64985.82;;
23573;SDS011;11965;53.640;10.050;2022-10-17T14:20:26;133535.58;;;64927.23;;
23573;SDS011;11965;53.640;10.050;2022-10-17T14:22:53;133883.83;;;65067.26;;
23573;SDS011;11965;53.640;10.050;2022-10-17T14:25:37;133913.84;;;65077.81;;
23573;SDS011;11965;53.640;10.050;2022-10-17T14:30:46;133746.27;;;65010.32;;
23573;SDS011;11965;53.640;10.050;2022-10-17T14:33:18;133926.70;;;65079.73;;
23573;SDS011;11965;53.640;10.050;2022-10-17T14:35:56;133791.23;;;65031.52;;
23573;SDS011;11965;53.640;10.050;2022-10-17T14:38:25;133885.00;;;65069.85;;
23573;SDS011;11965;53.640;10.050;2022-10-17T14:41:00;134084.61;;;65148.34;;
23573;SDS011;11965;53.640;10.050;2022-10-17T14:43:29;133701.34;;;64992.88;;
23573;SDS011;11965;53.640;10.050;2022-10-17T14:45:57;133833.41;;;65045.32;;
23573;SDS011;11965;53.640;10.050;2022-10-17T14:48:27;133808.11;;;65036.22;;
23573;SDS011;11965;53.640;10.050;2022-10-17T14:51:09;133923.11;;;65082.21;;
23573;SDS011;11965;53.640;10.050;2022-10-17T14:53:41;133679.64;;;64988.57;;
23573;SDS011;11965;53.640;10.050;2022-10-17T14:56:33;133855.45;;;65055.79;;
23573;SDS011;11965;53.640;10.050;2022-10-17T14:59:04;133810.16;;;65035.60;;
23573;SDS011;11965;53.640;10.050;2022-10-17T15:01:31;133792.03;;;65032.07;;
23573;SDS011;11965;53.640;10.050;2022-10-17T15:03:57;133888.08;;;65068.54;;
23573;SDS011;11965;53.640;10.050;2022-10-17T15:06:25;133707.69;;;65001.18;;
23573;SDS011;11965;53.640;10.050;2022-10-17T15:08:53;133859.38;;;65061.78;;
23573;SDS011;11965;53.640;10.050;2022-10-17T15:11:19;133711.58;;;64997.55;;
23573;SDS011;11965;53.640;10.050;2022-10-17T15:13:45;133597.69;;;64950.41;;
23573;SDS011;11965;53.640;10.050;2022-10-17T15:18:50;133810.38;;;65037.22;;
23573;SDS011;11965;53.640;10.050;2022-10-17T15:21:18;133737.45;;;65010.49;;